Time;durP1;ratioP1;P1;durP2;ratioP2;P2;SDS_P1;SDS_P2;PMS_P1;PMS_P2;Temp;Humidity;BMP_temperature;BMP_pressure;BME280_temperature;BME280_humidity;BME280_pressure;Samples;Min_cycle;Max_cycle;Signal;HPM_P1;HPM_P2
2022/06/13 00:02:13;;;;;;;12.75;4.10;;;;;;;15.99;100.00;-13646.41;5086028;28;20453;-78
2022/06/13 00:04:40;;;;;;;14.23;4.28;;;;;;;15.95;100.00;-15956.59;5088046;28;20510;-78
2022/06/13 00:07:06;;;;;;;14.65;4.25;;;;;;;15.88;100.00;-18264.63;5090668;28;20103;-77
2022/06/13 00:09:31;;;;;;;17.20;4.88;;;;;;;15.85;100.00;-19582.69;5089426;28;20503;-76
2022/06/13 00:11:57;;;;;;;12.00;4.05;;;;;;;15.87;100.00;-20901.38;5090675;28;20035;-79
2022/06/13 00:14:23;;;;;;;14.52;4.75;;;;;;;15.89;100.00;-21560.78;5088435;28;20059;-76
2022/06/13 00:16:49;;;;;;;15.35;4.45;;;;;;;15.93;100.00;-21891.16;5088473;28;20024;-77
2022/06/13 00:19:14;;;;;;;18.13;4.72;;;;;;;15.90;100.00;-21890.56;5074401;28;20078;-76
2022/06/13 00:21:39;;;;;;;14.75;4.90;;;;;;;15.95;100.00;-22221.06;5080217;28;20077;-76
2022/06/13 00:24:07;;;;;;;15.13;4.88;;;;;;;15.85;100.00;-22218.81;5090794;28;20403;-79
2022/06/13 00:26:34;;;;;;;14.90;4.78;;;;;;;15.81;100.00;-23864.22;5090452;28;20039;-79
2022/06/13 00:29:00;;;;;;;18.38;4.88;;;;;;;15.77;100.00;-25509.09;5090963;28;20119;-77
2022/06/13 00:31:26;;;;;;;14.63;4.55;;;;;;;15.69;100.00;-25508.69;5090571;28;20109;-80
2022/06/13 00:33:57;;;;;;;17.05;4.55;;;;;;;15.75;100.00;-25510.31;5090552;28;20495;-77
2022/06/13 00:36:23;;;;;;;;;;;;;;;15.74;100.00;-25510.16;5090334;28;20039;-79
2022/06/13 00:38:49;;;;;;;11.60;5.15;;;;;;;15.76;100.00;-25510.59;5089811;28;19920;-78
2022/06/13 00:41:20;;;;;;;12.98;4.35;;;;;;;15.80;100.00;-25511.75;5090822;28;20023;-77
2022/06/13 00:43:47;;;;;;;16.15;4.80;;;;;;;15.72;100.00;-25509.56;5081031;28;20120;-78
2022/06/13 00:46:19;;;;;;;16.58;4.90;;;;;;;15.69;100.00;-25508.56;5088951;28;20098;-76
2022/06/13 00:48:45;;;;;;;15.68;4.90;;;;;;;15.57;100.00;-25505.22;5089920;28;20054;-79
2022/06/13 00:51:10;;;;;;;14.15;4.78;;;;;;;15.56;100.00;-25504.91;5083542;28;20016;-76
2022/06/13 00:53:37;;;;;;;14.18;5.13;;;;;;;15.54;100.00;-25504.34;5090204;28;20468;-79
2022/06/13 00:56:14;;;;;;;16.38;5.28;;;;;;;15.54;100.00;-25504.34;5090574;28;20055;-78
2022/06/13 00:58:46;;;;;;;17.55;5.28;;;;;;;15.49;100.00;-25502.88;5089957;28;20032;-79
2022/06/13 01:01:13;;;;;;;14.85;5.28;;;;;;;15.56;100.00;-25504.91;5090770;28;20043;-78
2022/06/13 01:03:43;;;;;;;16.13;4.85;;;;;;;15.58;100.00;-25505.50;5090359;28;20038;-78
2022/06/13 01:06:09;;;;;;;17.13;4.90;;;;;;;15.57;100.00;-25505.22;5090907;28;20032;-77
2022/06/13 01:08:36;;;;;;;15.50;5.03;;;;;;;15.50;100.00;-25503.19;5090196;28;20119;-78
2022/06/13 01:11:18;;;;;;;16.98;4.90;;;;;;;15.59;100.00;-25505.78;5090804;28;20020;-79
2022/06/13 01:14:02;;;;;;;15.40;4.78;;;;;;;15.60;100.00;-25506.09;5087428;28;20040;-78
2022/06/13 01:16:59;;;;;;;21.00;5.72;;;;;;;15.55;100.00;-25504.63;5081861;28;20027;-78
2022/06/13 01:20:14;;;;;;;20.05;5.93;;;;;;;15.53;100.00;-25504.19;5088725;28;20044;-79
2022/06/13 01:22:59;;;;;;;19.60;5.38;;;;;;;15.58;100.00;-25505.66;5032317;28;20101;-78
2022/06/13 01:25:43;;;;;;;16.98;5.00;;;;;;;15.60;100.00;-25506.22;5077221;28;20032;-79
2022/06/13 01:28:46;;;;;;;16.90;4.93;;;;;;;15.59;100.00;-25505.78;5094625;28;20036;-79
2022/06/13 01:31:17;;;;;;;19.38;5.85;;;;;;;15.54;100.00;-25504.50;5075142;28;20081;-80
2022/06/13 01:34:16;;;;;;;17.95;5.18;;;;;;;15.59;100.00;-25505.78;5089475;28;20028;-74
2022/06/13 01:37:09;;;;;;;18.42;5.47;;;;;;;15.47;100.00;-25502.44;5091152;28;20408;-74
2022/06/13 01:39:57;;;;;;;17.60;5.35;;;;;;;15.50;100.00;-25503.31;5092502;28;20051;-74
2022/06/13 01:42:52;;;;;;;15.88;4.93;;;;;;;15.58;100.00;-25505.50;5090106;28;20090;-74
2022/06/13 01:45:39;;;;;;;19.35;5.30;;;;;;;15.48;100.00;-25502.75;5092281;28;20180;-75
2022/06/13 01:48:23;;;;;;;21.20;5.60;;;;;;;15.46;100.00;-25502.16;5091385;28;20207;-74
2022/06/13 01:50:53;;;;;;;18.98;5.55;;;;;;;15.43;100.00;-25501.28;5087510;28;20491;-74
2022/06/13 01:53:50;;;;;;;17.38;5.88;;;;;;;15.44;100.00;-25501.56;5091903;28;20040;-74
2022/06/13 01:56:19;;;;;;;19.70;5.68;;;;;;;15.40;100.00;-25500.56;5091977;28;20032;-75
2022/06/13 01:58:55;;;;;;;19.88;5.38;;;;;;;15.47;100.00;-25502.44;5091900;28;20024;-74
2022/06/13 02:01:34;;;;;;;15.98;5.70;;;;;;;15.43;100.00;-25501.44;5091985;28;20039;-76
2022/06/13 02:04:16;;;;;;;17.05;5.78;;;;;;;15.43;100.00;-25501.28;5071916;28;20036;-73
2022/06/13 02:06:47;;;;;;;18.65;5.03;;;;;;;15.47;100.00;-25502.31;5085555;28;20059;-74
2022/06/13 02:09:22;;;;;;;14.52;5.05;;;;;;;15.33;100.00;-25498.53;5090525;28;20038;-75
2022/06/13 02:11:50;;;;;;;20.00;6.32;;;;;;;15.28;100.00;-25496.94;5091025;28;20024;-73
2022/06/13 02:14:31;;;;;;;19.23;6.00;;;;;;;15.32;100.00;-25498.22;5092014;28;20024;-73
2022/06/13 02:17:05;;;;;;;18.80;5.95;;;;;;;15.33;100.00;-25498.38;5090260;28;20086;-74
2022/06/13 02:19:37;;;;;;;20.95;6.32;;;;;;;15.36;100.00;-25499.41;5091296;28;20666;-78
2022/06/13 02:22:33;;;;;;;21.17;5.82;;;;;;;15.37;100.00;-25499.69;5090220;28;20142;-74
2022/06/13 02:25:06;;;;;;;18.23;5.72;;;;;;;15.31;100.00;-25497.94;5091390;28;20126;-74
2022/06/13 02:27:35;;;;;;;23.83;6.20;;;;;;;15.29;100.00;-25497.34;5091663;28;20024;-74
2022/06/13 02:30:12;;;;;;;16.52;5.68;;;;;;;15.33;100.00;-25498.53;5090770;28;20161;-75
2022/06/13 02:32:42;;;;;;;24.75;6.30;;;;;;;15.26;100.00;-25496.50;5090597;28;20027;-72
2022/06/13 02:35:10;;;;;;;;;;;;;;;15.25;100.00;-25496.34;5090358;28;20043;-75
2022/06/13 02:38:14;;;;;;;19.42;5.82;;;;;;;15.19;100.00;-25494.44;5090569;28;20380;-75
2022/06/13 02:40:51;;;;;;;19.20;6.00;;;;;;;15.15;100.00;-25493.28;5066189;28;20049;-75
2022/06/13 02:43:26;;;;;;;18.60;6.00;;;;;;;15.16;100.00;-25493.72;5087265;28;20037;-75
2022/06/13 02:46:00;;;;;;;22.02;6.35;;;;;;;15.11;100.00;-25492.25;5086454;28;20113;-75
2022/06/13 02:48:37;;;;;;;19.40;5.88;;;;;;;15.09;100.00;-25491.69;5088864;28;20024;-73
2022/06/13 02:51:18;;;;;;;22.75;6.43;;;;;;;15.11;100.00;-25492.25;5076746;28;20124;-73
2022/06/13 02:54:25;;;;;;;20.30;6.35;;;;;;;15.06;100.00;-25490.97;5081466;28;20070;-73
2022/06/13 03:00:22;;;;;;;18.63;5.35;;;;;;;15.05;100.00;-25490.53;5091454;28;20063;-73
2022/06/13 03:03:21;;;;;;;19.30;5.47;;;;;;;15.07;100.00;-25491.25;5089394;28;20358;-74
2022/06/13 03:05:57;;;;;;;16.42;4.68;;;;;;;15.15;100.00;-25493.28;5090485;28;20627;-79
2022/06/13 03:08:37;;;;;;;15.18;4.60;;;;;;;15.04;100.00;-25490.38;5092877;28;20067;-81
2022/06/13 03:11:34;;;;;;;11.48;4.20;;;;;;;14.99;100.00;-25488.91;5072692;28;20068;-79
2022/06/13 03:14:24;;;;;;;14.15;4.00;;;;;;;14.99;100.00;-25488.78;5088700;28;20424;-78
2022/06/13 03:17:02;;;;;;;12.40;3.22;;;;;;;14.99;100.00;-25488.78;5091459;28;20028;-79
2022/06/13 03:19:33;;;;;;;9.52;3.40;;;;;;;15.01;100.00;-20554.22;5087809;28;20040;-77
2022/06/13 03:22:15;;;;;;;11.70;3.45;;;;;;;15.02;100.00;-15944.25;5091129;28;20035;-79
2022/06/13 03:24:53;;;;;;;15.18;3.92;;;;;;;15.02;100.00;-8358.31;5090491;28;20042;-78
2022/06/13 03:27:28;;;;;;;10.70;3.72;;;;;;;15.05;100.00;-3072.00;5091228;28;20024;-78
2022/06/13 03:30:16;;;;;;;8.82;2.80;;;;;;;15.03;100.00;3545.72;5091112;28;20048;-79
2022/06/13 03:33:40;;;;;;;11.13;3.55;;;;;;;15.00;100.00;13160.81;5083407;28;20108;-77
2022/06/13 03:35:38;;;;;;;9.80;3.10;;;;;;;14.95;100.00;22798.16;5081889;28;20032;-80
2022/06/13 03:38:07;;;;;;;8.30;2.67;;;;;;;14.91;100.00;22130.69;5091572;28;20047;-75
2022/06/13 03:40:39;;;;;;;10.95;2.83;;;;;;;14.90;100.00;26790.84;5088885;28;20584;-74
2022/06/13 03:43:14;;;;;;;9.50;2.85;;;;;;;14.84;100.00;29452.91;5088687;28;20500;-74
2022/06/13 03:45:44;;;;;;;8.30;3.08;;;;;;;14.83;100.00;28785.78;5092883;28;20016;-73
2022/06/13 03:48:18;;;;;;;11.52;3.30;;;;;;;14.83;100.00;30786.00;5080738;28;20031;-76
2022/06/13 03:50:52;;;;;;;11.10;3.10;;;;;;;14.83;100.00;29785.59;5088796;28;20031;-76
2022/06/13 03:53:31;;;;;;;11.32;2.97;;;;;;;14.83;100.00;28785.78;5090017;28;20036;-76
2022/06/13 03:56:09;;;;;;;11.98;2.72;;;;;;;14.76;100.00;28781.94;5090380;28;20444;-76
2022/06/13 03:59:00;;;;;;;11.90;3.42;;;;;;;14.75;100.00;26116.44;5088346;28;20115;-75
2022/06/13 04:01:32;;;;;;;7.70;2.40;;;;;;;14.75;100.00;22122.97;5090021;28;20112;-76
2022/06/13 04:04:00;;;;;;;9.30;2.60;;;;;;;14.74;100.00;22122.47;5089484;28;20048;-74
2022/06/13 04:06:32;;;;;;;6.70;2.30;;;;;;;14.76;100.00;17469.47;5090330;28;20032;-74
2022/06/13 04:09:00;;;;;;;8.93;2.33;;;;;;;14.76;100.00;18466.50;5089176;28;20043;-75
2022/06/13 04:12:07;;;;;;;8.27;2.63;;;;;;;14.82;100.00;16807.44;5089617;28;20592;-75
2022/06/13 04:15:09;;;;;;;12.57;2.97;;;;;;;14.76;100.00;17137.47;5074823;28;20032;-76
2022/06/13 04:17:43;;;;;;;11.60;3.17;;;;;;;14.76;100.00;13816.69;5074144;28;20077;-80
2022/06/13 04:20:37;;;;;;;9.35;3.33;;;;;;;14.74;100.00;12488.59;5083323;28;20377;-78
2022/06/13 04:23:44;;;;;;;8.35;2.72;;;;;;;14.79;100.00;9836.72;5085645;28;20456;-75
2022/06/13 04:26:17;;;;;;;9.10;2.67;;;;;;;14.79;100.00;7847.53;5087760;28;20040;-76
2022/06/13 04:28:55;;;;;;;13.77;3.05;;;;;;;14.83;100.00;6523.00;5089884;28;20091;-78
2022/06/13 04:31:23;;;;;;;7.75;2.50;;;;;;;14.85;100.00;4204.88;5090839;28;20499;-79
2022/06/13 04:33:58;;;;;;;8.35;2.63;;;;;;;14.84;100.00;5860.63;5091208;28;20032;-79
2022/06/13 04:36:26;;;;;;;8.85;2.60;;;;;;;14.87;100.00;4867.53;5090524;28;20498;-81
2022/06/13 04:38:55;;;;;;;10.82;2.90;;;;;;;14.92;100.00;4206.13;5092449;28;20534;-81
2022/06/13 04:41:24;;;;;;;9.93;2.90;;;;;;;15.02;100.00;5201.75;5091276;28;20027;-75
2022/06/13 04:43:56;;;;;;;7.97;2.40;;;;;;;15.10;100.00;4540.66;5091318;28;20059;-78
2022/06/13 04:46:25;;;;;;;9.38;2.45;;;;;;;15.07;100.00;9181.06;5076738;28;20047;-80
2022/06/13 04:48:55;;;;;;;8.23;3.05;;;;;;;15.41;100.00;13506.53;5093912;28;20024;-80
2022/06/13 04:51:24;;;;;;;7.50;2.37;;;;;;;16.46;100.00;20203.25;5094214;28;20055;-73
2022/06/13 04:54:01;;;;;;;7.72;2.42;;;;;;;17.41;100.00;44357.09;5088966;28;20042;-72
2022/06/13 04:56:28;;;;;;;7.70;2.05;;;;;;;17.45;100.00;97116.13;5089331;28;20034;-75
2022/06/13 04:58:55;;;;;;;8.40;2.15;;;;;;;17.12;100.00;146599.53;5069299;28;20040;-74
2022/06/13 05:01:34;;;;;;;7.25;2.10;;;;;;;17.23;100.00;147063.53;5082098;28;20031;-75
2022/06/13 05:04:05;;;;;;;6.97;1.83;;;;;;;17.59;100.00;147154.28;5087656;28;20029;-74
2022/06/13 05:06:33;;;;;;;8.02;2.38;;;;;;;17.22;100.00;147060.97;5093448;28;20059;-74
2022/06/13 05:09:03;;;;;;;6.55;1.85;;;;;;;16.99;100.00;147004.72;5094332;28;20032;-77
2022/06/13 05:11:38;;;;;;;6.65;1.98;;;;;;;16.91;100.00;146984.28;5093495;28;20024;-75
2022/06/13 05:14:17;;;;;;;8.65;2.30;;;;;;;17.01;100.00;147009.84;5086041;28;20016;-77
2022/06/13 05:16:52;;;;;;;7.05;1.95;;;;;;;17.21;100.00;147059.72;5092889;28;20028;-78
2022/06/13 05:19:35;;;;;;;10.60;2.47;;;;;;;17.07;100.00;147023.88;5090101;28;20040;-80
2022/06/13 05:22:06;;;;;;;9.02;2.20;;;;;;;16.77;100.00;146948.47;5093508;28;20024;-79
2022/06/13 05:24:59;;;;;;;7.03;2.05;;;;;;;16.28;100.00;146827.06;5092706;28;20036;-74
2022/06/13 05:27:25;;;;;;;6.90;2.10;;;;;;;16.50;100.00;146883.28;5094427;28;20032;-76
2022/06/13 05:29:50;;;;;;;7.72;2.08;;;;;;;16.41;100.00;146860.28;5090800;28;20426;-75
2022/06/13 05:32:20;;;;;;;12.13;2.50;;;;;;;16.60;100.00;146906.28;5085517;28;20037;-75
2022/06/13 05:34:48;;;;;;;6.32;2.03;;;;;;;16.45;100.00;146869.22;5072371;28;20020;-74
2022/06/13 05:37:15;;;;;;;7.97;2.17;;;;;;;16.47;100.00;146875.63;5084466;28;20059;-76
2022/06/13 05:39:40;;;;;;;8.23;2.20;;;;;;;16.63;100.00;146913.97;5092053;28;20020;-74
2022/06/13 05:42:06;;;;;;;8.18;2.50;;;;;;;17.57;100.00;147147.88;5090945;28;20074;-72
2022/06/13 05:44:32;;;;;;;7.10;1.95;;;;;;;18.42;100.00;147358.97;5086031;28;20059;-72
2022/06/13 05:46:57;;;;;;;9.85;2.22;;;;;;;19.11;100.00;147531.78;5092220;28;20028;-80
2022/06/13 05:49:23;;;;;;;7.40;1.85;;;;;;;18.93;100.00;147486.97;5092188;28;20028;-80
2022/06/13 05:51:48;;;;;;;8.02;2.10;;;;;;;18.62;100.00;147410.13;5092681;28;20056;-75
2022/06/13 05:54:16;;;;;;;8.32;1.60;;;;;;;18.59;100.00;147401.19;5092232;28;20063;-76
2022/06/13 05:56:42;;;;;;;5.80;1.70;;;;;;;17.98;100.00;147250.25;5091341;28;20027;-76
2022/06/13 05:59:08;;;;;;;10.00;2.45;;;;;;;17.91;100.00;147233.63;5092650;28;20127;-74
2022/06/13 06:01:35;;;;;;;5.57;1.23;;;;;;;17.33;100.00;147087.81;5088615;28;20106;-73
2022/06/13 06:04:03;;;;;;;6.25;1.40;;;;;;;17.13;100.00;147039.22;5090663;28;20024;-73
2022/06/13 06:06:30;;;;;;;6.55;1.38;;;;;;;17.07;100.00;147022.63;5074336;28;20028;-75
2022/06/13 06:08:56;;;;;;;6.63;1.55;;;;;;;16.75;100.00;146944.63;5074843;28;20047;-74
2022/06/13 06:11:26;;;;;;;4.88;1.50;;;;;;;16.66;100.00;146922.88;5071389;28;20025;-73
2022/06/13 06:13:52;;;;;;;7.65;1.65;;;;;;;17.00;100.00;147006.03;5081686;28;20118;-75
2022/06/13 06:16:20;;;;;;;9.05;1.67;;;;;;;17.60;100.00;147155.53;5091461;28;20067;-74
2022/06/13 06:18:46;;;;;;;9.35;1.73;;;;;;;17.74;100.00;147190.06;5090030;28;20030;-75
2022/06/13 06:21:12;;;;;;;7.65;1.52;;;;;;;17.82;100.00;147210.56;5074059;28;20024;-78
2022/06/13 06:23:38;;;;;;;7.32;1.67;;;;;;;17.74;100.00;147191.38;5082539;28;20055;-78
2022/06/13 06:26:05;;;;;;;8.77;1.50;;;;;;;17.50;100.00;147131.28;5094920;28;20038;-78
2022/06/13 06:28:32;;;;;;;7.78;1.90;;;;;;;17.46;100.00;147121.03;5093768;28;20039;-80
2022/06/13 06:30:59;;;;;;;9.52;1.80;;;;;;;17.36;100.00;147096.75;5082769;28;20039;-75
2022/06/13 06:33:27;;;;;;;7.68;1.65;;;;;;;17.20;100.00;147055.88;5081602;28;20391;-75
2022/06/13 06:35:53;;;;;;;10.10;2.08;;;;;;;17.15;100.00;147044.38;5094080;28;20069;-75
2022/06/13 06:38:24;;;;;;;7.05;1.52;;;;;;;16.91;100.00;146983.00;5093932;28;20030;-75
2022/06/13 06:40:51;;;;;;;8.13;2.00;;;;;;;16.80;100.00;146957.38;5094265;28;20027;-76
2022/06/13 06:43:18;;;;;;;7.40;1.90;;;;;;;17.31;100.00;147082.66;5094172;28;20016;-75
2022/06/13 06:45:44;;;;;;;11.32;2.00;;;;;;;16.90;100.00;146981.69;5093797;28;20074;-75
2022/06/13 06:48:14;;;;;;;7.80;1.85;;;;;;;17.11;100.00;147032.84;5094425;28;20023;-75
2022/06/13 06:50:44;;;;;;;8.98;1.52;;;;;;;17.21;100.00;147059.72;5093678;28;20131;-79
2022/06/13 06:53:13;;;;;;;6.43;1.13;;;;;;;17.08;100.00;147025.19;5093556;28;20123;-77
2022/06/13 06:59:53;;;;;;;5.32;1.20;;;;;;;17.53;100.00;147137.69;5112515;28;20038;-74
2022/06/13 07:01:15;;;;;;;5.57;1.20;;;;;;;17.88;100.00;147225.97;5113243;28;20487;-75
2022/06/13 07:03:44;;;;;;;5.93;1.33;;;;;;;17.72;100.00;147186.22;5094329;28;20110;-81
2022/06/13 07:06:11;;;;;;;4.38;0.98;;;;;;;17.89;100.00;147227.22;5094258;28;20564;-75
2022/06/13 07:08:36;;;;;;;6.78;1.10;;;;;;;18.48;100.00;147375.56;5093606;28;20023;-73
2022/06/13 07:13:55;;;;;;;4.10;1.00;;;;;;;19.41;100.00;147604.75;5110977;28;20042;-75
2022/06/13 07:16:20;;;;;;;7.10;1.17;;;;;;;20.08;100.00;147773.78;5085326;28;20032;-73
2022/06/13 07:18:46;;;;;;;5.78;1.00;;;;;;;19.74;100.00;147689.22;5072615;28;20701;-75
2022/06/13 07:21:13;;;;;;;3.80;1.00;;;;;;;20.45;100.00;147864.75;5081288;28;20505;-76
2022/06/13 07:23:38;;;;;;;4.43;1.00;;;;;;;20.28;100.00;147822.47;5090642;28;20032;-74
2022/06/13 07:26:04;;;;;;;5.80;1.20;;;;;;;21.21;100.00;148053.16;5093477;28;20069;-74
2022/06/13 07:28:30;;;;;;;5.57;1.23;;;;;;;21.68;100.00;148171.16;5092101;28;20028;-73
2022/06/13 07:30:56;;;;;;;5.00;1.20;;;;;;;22.13;100.00;148282.75;5093314;28;20031;-76
2022/06/13 07:33:23;;;;;;;6.93;2.45;;;;;;;21.62;100.00;148157.03;5092734;28;20049;-74
2022/06/13 07:35:48;;;;;;;6.07;1.45;;;;;;;20.34;100.00;147837.84;5092788;28;20042;-74
2022/06/13 07:38:16;;;;;;;4.22;1.23;;;;;;;19.36;100.00;147594.50;5093610;28;20035;-75
2022/06/13 07:40:45;;;;;;;5.80;1.80;;;;;;;19.81;100.00;147704.63;5093812;28;20016;-74
2022/06/13 07:43:22;;;;;;;5.75;1.50;;;;;;;20.86;100.00;147967.28;5089589;28;20031;-76
2022/06/13 07:45:48;;;;;;;8.32;1.48;;;;;;;21.71;100.00;148177.59;5090924;28;20031;-75
2022/06/13 07:48:14;;;;;;;8.13;1.70;;;;;;;21.88;100.00;148222.44;5073319;28;20028;-72
2022/06/13 07:50:40;;;;;;;7.25;1.77;;;;;;;21.01;100.00;148003.22;5076276;28;20024;-74
2022/06/13 07:53:05;;;;;;;8.45;1.80;;;;;;;19.94;100.00;147737.94;5086599;28;20032;-75
2022/06/13 07:55:32;;;;;;;5.45;1.50;;;;;;;19.35;100.00;147591.91;5092351;28;20038;-74
2022/06/13 07:57:58;;;;;;;7.07;1.55;;;;;;;18.28;100.00;147325.69;5091803;28;20468;-74
2022/06/13 08:00:30;;;;;;;6.72;1.30;;;;;;;17.90;100.00;147231.06;5091653;28;20119;-74
2022/06/13 08:02:56;;;;;;;8.85;1.73;;;;;;;17.33;100.00;147089.06;5091395;28;20020;-74
2022/06/13 08:05:22;;;;;;;7.93;1.33;;;;;;;18.60;100.00;147403.75;5092501;28;20050;-74
2022/06/13 08:07:47;;;;;;;3.33;1.20;;;;;;;19.83;100.00;147711.03;5092294;28;20582;-77
2022/06/13 08:10:13;;;;;;;5.28;1.42;;;;;;;20.92;100.00;147981.41;5092153;28;20571;-76
2022/06/13 08:12:41;;;;;;;4.70;1.27;;;;;;;20.86;100.00;147966.03;5092808;28;20519;-80
2022/06/13 08:15:07;;;;;;;5.32;1.35;;;;;;;21.33;100.00;148083.91;5091874;28;20054;-76
2022/06/13 08:17:33;;;;;;;4.50;1.30;;;;;;;21.46;100.00;148117.25;5093057;28;20107;-76
2022/06/13 08:19:58;;;;;;;4.13;1.08;;;;;;;21.57;100.00;148142.97;5093216;28;20046;-79
2022/06/13 08:22:23;;;;;;;4.97;1.05;;;;;;;21.64;100.00;148160.91;5093734;28;20020;-78
2022/06/13 08:24:49;;;;;;;3.55;1.10;;;;;;;22.02;100.00;148255.81;5091559;28;20463;-81
2022/06/13 08:27:15;;;;;;;4.82;1.00;;;;;;;21.27;100.00;148069.84;5090931;28;20157;-80
2022/06/13 08:29:40;;;;;;;5.43;1.35;;;;;;;20.15;100.00;147790.47;5092979;28;20100;-81
2022/06/13 08:32:06;;;;;;;5.13;0.93;;;;;;;20.51;100.00;147880.13;5093252;28;20384;-81
2022/06/13 08:34:32;;;;;;;6.65;1.20;;;;;;;21.16;100.00;148041.63;5093051;28;20343;-81
2022/06/13 08:36:57;;;;;;;4.63;1.17;;;;;;;21.42;100.00;148105.72;5096636;28;20464;-81
2022/06/13 08:39:23;;;;;;;5.25;1.42;;;;;;;21.09;100.00;148023.69;5115296;28;20427;-77
2022/06/13 08:41:58;;;;;;;6.95;1.30;;;;;;;20.67;100.00;147918.63;5095746;28;20123;-79
2022/06/13 08:45:00;;;;;;;7.95;1.58;;;;;;;19.85;100.00;147714.88;5096114;28;20047;-74
2022/06/13 08:47:37;;;;;;;3.58;0.98;;;;;;;19.49;100.00;147625.22;5097027;28;20031;-75
2022/06/13 08:50:13;;;;;;;4.32;1.15;;;;;;;19.30;100.00;147577.84;5096296;28;20134;-73
2022/06/13 08:53:02;;;;;;;6.18;1.60;;;;;;;20.92;100.00;147981.41;5095311;28;20498;-77
2022/06/13 08:55:38;;;;;;;5.78;1.45;;;;;;;21.57;100.00;148142.97;5096204;28;20012;-74
2022/06/13 08:58:34;;;;;;;4.10;1.15;;;;;;;21.95;100.00;148239.09;5095881;28;20073;-73
2022/06/13 09:01:07;;;;;;;6.43;1.33;;;;;;;20.13;100.00;147784.06;5096426;28;20023;-74
2022/06/13 09:03:50;;;;;;;6.45;1.50;;;;;;;19.01;100.00;147507.41;5095543;28;20050;-74
2022/06/13 09:06:24;;;;;;;5.00;1.48;;;;;;;19.16;100.00;147543.28;5096048;28;20023;-73
2022/06/13 09:09:02;;;;;;;7.13;1.80;;;;;;;19.89;100.00;147725.16;5089461;28;20024;-73
2022/06/13 09:11:37;;;;;;;4.65;1.50;;;;;;;20.01;100.00;147755.88;5090462;28;20031;-74
2022/06/13 09:14:25;;;;;;;6.30;1.60;;;;;;;19.26;100.00;147567.59;5095023;28;20027;-73
2022/06/13 09:17:03;;;;;;;4.68;1.20;;;;;;;20.11;100.00;147778.94;5094490;28;20023;-74
2022/06/13 09:19:36;;;;;;;8.05;1.58;;;;;;;21.50;100.00;148127.59;5094984;28;20053;-72
2022/06/13 09:22:16;;;;;;;7.60;1.38;;;;;;;21.40;100.00;148100.63;5094493;28;20030;-73
2022/06/13 09:24:50;;;;;;;5.03;1.20;;;;;;;20.87;100.00;147969.88;5095597;28;20667;-76
2022/06/13 09:27:24;;;;;;;5.65;1.50;;;;;;;21.37;100.00;148092.94;5094878;28;20020;-73
2022/06/13 09:30:05;;;;;;;4.53;1.30;;;;;;;21.60;100.00;148150.66;5095435;28;20070;-73
2022/06/13 09:32:41;;;;;;;7.25;1.33;;;;;;;21.79;100.00;148198.09;5094584;28;20083;-73
2022/06/13 09:35:22;;;;;;;7.65;1.63;;;;;;;20.37;100.00;147845.53;5094315;28;20031;-73
2022/06/13 09:37:54;;;;;;;7.13;1.33;;;;;;;20.54;100.00;147887.81;5095160;28;20054;-75
2022/06/13 09:40:33;;;;;;;8.23;1.58;;;;;;;19.63;100.00;147659.78;5088251;28;20406;-73
2022/06/13 09:43:13;;;;;;;5.90;1.30;;;;;;;19.46;100.00;147617.53;5094571;28;20024;-72
2022/06/13 09:45:53;;;;;;;6.13;1.23;;;;;;;20.36;100.00;147842.97;5087088;28;20046;-73
2022/06/13 09:48:41;;;;;;;5.95;1.52;;;;;;;19.50;100.00;147627.78;5094199;28;20024;-73
2022/06/13 09:51:14;;;;;;;5.53;1.70;;;;;;;19.26;100.00;147568.88;5089960;28;20148;-76
2022/06/13 09:53:43;;;;;;;4.97;1.20;;;;;;;19.90;100.00;147727.69;5094511;28;20743;-75
2022/06/13 09:56:15;;;;;;;6.28;1.40;;;;;;;20.48;100.00;147871.13;5094850;28;20095;-76
2022/06/13 09:59:18;;;;;;;6.75;1.30;;;;;;;20.37;100.00;147844.22;5094507;28;20031;-74
2022/06/13 10:01:58;;;;;;;6.05;1.13;;;;;;;19.43;100.00;147609.84;5094227;28;20069;-75
2022/06/13 10:04:39;;;;;;;3.70;1.00;;;;;;;19.88;100.00;147723.84;5095031;28;20032;-74
2022/06/13 10:07:21;;;;;;;3.70;1.20;;;;;;;19.74;100.00;147689.22;5094958;28;20031;-74
2022/06/13 10:10:16;;;;;;;8.00;1.42;;;;;;;19.42;100.00;147608.59;5094192;28;20031;-74
2022/06/13 10:12:51;;;;;;;8.25;1.30;;;;;;;19.77;100.00;147695.69;5094714;28;20032;-75
2022/06/13 10:15:43;;;;;;;7.70;1.17;;;;;;;19.30;100.00;147579.13;5095130;28;20089;-75
2022/06/13 10:18:25;;;;;;;6.65;1.30;;;;;;;18.90;100.00;147478.03;5094852;28;20128;-76
2022/06/13 10:21:10;;;;;;;5.20;1.30;;;;;;;19.74;100.00;147689.22;5091638;28;20095;-81
2022/06/13 10:23:48;;;;;;;5.28;1.20;;;;;;;20.13;100.00;147784.06;5092611;28;20066;-75
2022/06/13 10:26:28;;;;;;;8.25;1.40;;;;;;;20.58;100.00;147898.03;5093575;28;20096;-74
2022/06/13 10:29:04;;;;;;;6.60;1.30;;;;;;;20.15;100.00;147790.47;5092024;28;20098;-75
2022/06/13 10:32:00;;;;;;;3.80;0.93;;;;;;;20.42;100.00;147858.34;5088269;28;20035;-72
2022/06/13 10:34:50;;;;;;;3.58;1.00;;;;;;;20.94;100.00;147986.50;5074790;28;20035;-71
2022/06/13 10:37:21;;;;;;;3.38;1.30;;;;;;;20.59;100.00;147899.34;5087166;28;20023;-73
2022/06/13 10:39:50;;;;;;;5.45;1.45;;;;;;;20.41;100.00;147854.50;5094707;28;20080;-76
2022/06/13 10:42:20;;;;;;;4.72;1.30;;;;;;;19.81;100.00;147704.63;5094596;28;20024;-74
2022/06/13 10:44:46;;;;;;;5.72;1.17;;;;;;;19.84;100.00;147713.63;5093805;28;20024;-75
2022/06/13 10:47:26;;;;;;;5.75;1.20;;;;;;;20.22;100.00;147807.09;5094285;28;20023;-72
2022/06/13 10:50:00;;;;;;;7.10;1.30;;;;;;;19.77;100.00;147695.69;5093516;28;20035;-73
2022/06/13 10:52:31;;;;;;;4.95;1.40;;;;;;;19.32;100.00;147584.22;5093385;28;20024;-73
2022/06/13 10:55:08;;;;;;;4.40;1.20;;;;;;;18.90;100.00;147478.03;5093902;28;20035;-72
2022/06/13 10:57:41;;;;;;;6.93;1.30;;;;;;;19.34;100.00;147589.38;5093591;28;20093;-71
2022/06/13 11:00:18;;;;;;;4.75;1.70;;;;;;;19.85;100.00;147714.88;5092778;28;20027;-72
2022/06/13 11:02:44;;;;;;;5.82;1.05;;;;;;;19.95;100.00;147739.19;5093464;28;20020;-72
2022/06/13 11:05:19;;;;;;;4.57;1.10;;;;;;;20.27;100.00;147819.91;5093747;28;20027;-73
2022/06/13 11:07:55;;;;;;;5.93;1.58;;;;;;;20.33;100.00;147835.28;5112030;28;20543;-74
2022/06/13 11:10:39;;;;;;;4.55;1.17;;;;;;;20.01;100.00;147754.56;5093510;28;20020;-73
2022/06/13 11:13:13;;;;;;;4.57;1.02;;;;;;;19.97;100.00;147745.63;5093633;28;20594;-73
2022/06/13 11:24:49;;;;;;;7.22;1.42;;;;;;;19.42;100.00;147608.59;5051402;28;20114;-72
2022/06/13 11:27:40;;;;;;;8.45;1.77;;;;;;;19.51;100.00;147631.63;5068017;28;20473;-73
2022/06/13 11:30:33;;;;;;;7.53;1.67;;;;;;;20.15;100.00;147789.16;5069004;28;20409;-74
2022/06/13 11:33:10;;;;;;;4.63;1.50;;;;;;;20.31;100.00;147830.16;5069344;28;20024;-74
2022/06/13 11:35:46;;;;;;;9.13;1.83;;;;;;;20.09;100.00;147775.09;5069154;28;20024;-71
2022/06/13 11:38:28;;;;;;;7.15;1.48;;;;;;;19.88;100.00;147722.56;5068943;28;20570;-74
2022/06/13 11:41:06;;;;;;;6.70;1.58;;;;;;;19.73;100.00;147686.69;5067065;28;20021;-73
2022/06/13 11:43:43;;;;;;;6.43;1.30;;;;;;;19.59;100.00;147650.78;5069358;28;20361;-74
2022/06/13 11:46:30;;;;;;;5.95;1.15;;;;;;;19.90;100.00;147727.69;5069367;28;20032;-73
2022/06/13 11:49:05;;;;;;;7.25;1.60;;;;;;;20.09;100.00;147775.09;5069555;28;20553;-73
2022/06/13 11:51:39;;;;;;;6.30;1.35;;;;;;;19.99;100.00;147750.72;5069601;28;20054;-73
2022/06/13 11:54:16;;;;;;;5.72;1.25;;;;;;;20.35;100.00;147840.38;5058446;28;20024;-77
2022/06/13 11:56:42;;;;;;;4.65;1.23;;;;;;;20.50;100.00;147876.28;5067315;28;20037;-77
2022/06/13 11:59:15;;;;;;;5.53;1.25;;;;;;;20.26;100.00;147817.38;5066909;28;20384;-78
2022/06/13 12:01:41;;;;;;;5.35;0.98;;;;;;;19.44;100.00;147612.44;5071218;28;20428;-77
2022/06/13 12:04:10;;;;;;;6.28;1.10;;;;;;;19.29;100.00;147575.28;5072008;28;20028;-78
2022/06/13 12:06:43;;;;;;;4.07;1.27;;;;;;;19.60;100.00;147653.38;5071765;28;20024;-76
2022/06/13 12:09:21;;;;;;;5.88;1.52;;;;;;;19.75;100.00;147690.53;5069314;28;20416;-79